sensor_id;sensor_type;location;lat;lon;timestamp;temperature;humidity
53962;DHT22;39868;53.398;6.564;2022-12-13T00:01:51;0.80;78.40
53962;DHT22;39868;53.398;6.564;2022-12-13T00:04:21;0.80;78.40
53962;DHT22;39868;53.398;6.564;2022-12-13T00:06:50;0.80;78.40
53962;DHT22;39868;53.398;6.564;2022-12-13T00:09:18;0.80;78.40
53962;DHT22;39868;53.398;6.564;2022-12-13T00:11:47;0.80;78.40
53962;DHT22;39868;53.398;6.564;2022-12-13T00:14:16;0.80;78.40
53962;DHT22;39868;53.398;6.564;2022-12-13T00:16:45;0.70;78.40
53962;DHT22;39868;53.398;6.564;2022-12-13T00:19:14;0.70;78.40
53962;DHT22;39868;53.398;6.564;2022-12-13T00:21:41;0.70;78.40
53962;DHT22;39868;53.398;6.564;2022-12-13T00:24:09;0.70;78.40
53962;DHT22;39868;53.398;6.564;2022-12-13T00:26:37;0.70;78.40
53962;DHT22;39868;53.398;6.564;2022-12-13T00:29:05;0.70;78.40
53962;DHT22;39868;53.398;6.564;2022-12-13T00:31:34;0.70;78.40
53962;DHT22;39868;53.398;6.564;2022-12-13T00:34:22;0.70;78.50
53962;DHT22;39868;53.398;6.564;2022-12-13T00:36:52;0.70;78.50
53962;DHT22;39868;53.398;6.564;2022-12-13T00:39:20;0.70;78.50
53962;DHT22;39868;53.398;6.564;2022-12-13T00:41:48;0.70;78.50
53962;DHT22;39868;53.398;6.564;2022-12-13T00:44:15;0.70;78.50
53962;DHT22;39868;53.398;6.564;2022-12-13T00:46:45;0.70;78.50
53962;DHT22;39868;53.398;6.564;2022-12-13T00:49:12;0.70;78.50
53962;DHT22;39868;53.398;6.564;2022-12-13T00:51:40;0.60;78.50
53962;DHT22;39868;53.398;6.564;2022-12-13T00:54:09;0.60;78.50
53962;DHT22;39868;53.398;6.564;2022-12-13T00:56:37;0.60;78.50
53962;DHT22;39868;53.398;6.564;2022-12-13T00:59:05;0.60;78.50
53962;DHT22;39868;53.398;6.564;2022-12-13T01:01:34;0.60;78.50
53962;DHT22;39868;53.398;6.564;2022-12-13T01:04:04;0.60;78.40
53962;DHT22;39868;53.398;6.564;2022-12-13T01:06:40;0.60;78.40
53962;DHT22;39868;53.398;6.564;2022-12-13T01:09:20;0.60;78.40
53962;DHT22;39868;53.398;6.564;2022-12-13T01:11:48;0.50;78.30
53962;DHT22;39868;53.398;6.564;2022-12-13T01:14:17;0.50;78.30
53962;DHT22;39868;53.398;6.564;2022-12-13T01:16:45;0.40;78.20
53962;DHT22;39868;53.398;6.564;2022-12-13T01:19:13;0.40;78.20
53962;DHT22;39868;53.398;6.564;2022-12-13T01:21:40;0.40;78.20
53962;DHT22;39868;53.398;6.564;2022-12-13T01:24:08;0.40;78.20
53962;DHT22;39868;53.398;6.564;2022-12-13T01:26:35;0.30;78.20
53962;DHT22;39868;53.398;6.564;2022-12-13T01:29:03;0.30;78.20
53962;DHT22;39868;53.398;6.564;2022-12-13T01:31:32;0.30;78.30
53962;DHT22;39868;53.398;6.564;2022-12-13T01:33:59;0.20;78.20
53962;DHT22;39868;53.398;6.564;2022-12-13T01:36:38;0.20;78.30
53962;DHT22;39868;53.398;6.564;2022-12-13T01:39:07;0.20;78.30
53962;DHT22;39868;53.398;6.564;2022-12-13T01:41:43;0.20;78.30
53962;DHT22;39868;53.398;6.564;2022-12-13T01:47:19;0.20;78.40
53962;DHT22;39868;53.398;6.564;2022-12-13T01:49:49;0.10;78.40
53962;DHT22;39868;53.398;6.564;2022-12-13T01:52:17;0.20;78.40
53962;DHT22;39868;53.398;6.564;2022-12-13T01:54:49;0.10;78.40
53962;DHT22;39868;53.398;6.564;2022-12-13T01:57:20;0.10;78.40
53962;DHT22;39868;53.398;6.564;2022-12-13T01:59:49;0.10;78.40
53962;DHT22;39868;53.398;6.564;2022-12-13T02:02:17;0.10;78.40
53962;DHT22;39868;53.398;6.564;2022-12-13T02:04:55;0.10;78.40
53962;DHT22;39868;53.398;6.564;2022-12-13T02:07:28;0.10;78.40
53962;DHT22;39868;53.398;6.564;2022-12-13T02:10:00;0.10;78.40
53962;DHT22;39868;53.398;6.564;2022-12-13T02:12:31;0.10;78.40
53962;DHT22;39868;53.398;6.564;2022-12-13T02:15:04;0.10;78.40
53962;DHT22;39868;53.398;6.564;2022-12-13T02:26:28;0.00;78.40
53962;DHT22;39868;53.398;6.564;2022-12-13T02:29:30;0.00;78.40
53962;DHT22;39868;53.398;6.564;2022-12-13T02:32:29;0.00;78.40
53962;DHT22;39868;53.398;6.564;2022-12-13T02:35:07;0.00;78.40
53962;DHT22;39868;53.398;6.564;2022-12-13T02:40:22;-0.10;78.40
53962;DHT22;39868;53.398;6.564;2022-12-13T02:45:31;-0.10;78.50
53962;DHT22;39868;53.398;6.564;2022-12-13T02:48:02;-0.10;78.50
53962;DHT22;39868;53.398;6.564;2022-12-13T02:50:31;-0.10;78.50
53962;DHT22;39868;53.398;6.564;2022-12-13T02:53:00;-0.10;78.50
53962;DHT22;39868;53.398;6.564;2022-12-13T02:55:28;-0.10;78.50
53962;DHT22;39868;53.398;6.564;2022-12-13T02:57:58;-0.10;78.50
53962;DHT22;39868;53.398;6.564;2022-12-13T03:09:50;-0.20;78.50
53962;DHT22;39868;53.398;6.564;2022-12-13T03:12:42;-0.20;78.50
53962;DHT22;39868;53.398;6.564;2022-12-13T03:15:44;-0.20;78.50
53962;DHT22;39868;53.398;6.564;2022-12-13T03:18:18;-0.20;78.50
53962;DHT22;39868;53.398;6.564;2022-12-13T03:20:49;-0.20;78.50
53962;DHT22;39868;53.398;6.564;2022-12-13T03:23:17;-0.30;78.50
53962;DHT22;39868;53.398;6.564;2022-12-13T03:25:47;-0.30;78.50
53962;DHT22;39868;53.398;6.564;2022-12-13T03:28:15;-0.30;78.50
53962;DHT22;39868;53.398;6.564;2022-12-13T03:30:43;-0.30;78.40
53962;DHT22;39868;53.398;6.564;2022-12-13T03:33:10;-0.30;78.50
53962;DHT22;39868;53.398;6.564;2022-12-13T03:35:39;-0.30;78.50
53962;DHT22;39868;53.398;6.564;2022-12-13T03:38:16;-0.40;78.40
53962;DHT22;39868;53.398;6.564;2022-12-13T03:40:56;-0.40;78.50
53962;DHT22;39868;53.398;6.564;2022-12-13T03:43:24;-0.40;78.50
53962;DHT22;39868;53.398;6.564;2022-12-13T03:45:53;-0.40;78.50
53962;DHT22;39868;53.398;6.564;2022-12-13T03:48:22;-0.40;78.50
53962;DHT22;39868;53.398;6.564;2022-12-13T03:50:51;-0.40;78.50
53962;DHT22;39868;53.398;6.564;2022-12-13T03:53:20;-0.40;78.50
53962;DHT22;39868;53.398;6.564;2022-12-13T03:56:02;-0.40;78.50
53962;DHT22;39868;53.398;6.564;2022-12-13T03:58:31;-0.40;78.50
53962;DHT22;39868;53.398;6.564;2022-12-13T04:01:04;-0.40;78.60
53962;DHT22;39868;53.398;6.564;2022-12-13T04:03:32;-0.40;78.60
53962;DHT22;39868;53.398;6.564;2022-12-13T04:05:59;-0.40;78.60
53962;DHT22;39868;53.398;6.564;2022-12-13T04:08:27;-0.40;78.60
53962;DHT22;39868;53.398;6.564;2022-12-13T04:10:55;-0.40;78.60
53962;DHT22;39868;53.398;6.564;2022-12-13T04:13:22;-0.40;78.70
53962;DHT22;39868;53.398;6.564;2022-12-13T04:16:00;-0.40;78.70
53962;DHT22;39868;53.398;6.564;2022-12-13T04:18:29;-0.40;78.70
53962;DHT22;39868;53.398;6.564;2022-12-13T04:20:56;-0.40;78.70
53962;DHT22;39868;53.398;6.564;2022-12-13T04:23:24;-0.40;78.70
53962;DHT22;39868;53.398;6.564;2022-12-13T04:25:51;-0.40;78.70
53962;DHT22;39868;53.398;6.564;2022-12-13T04:28:19;-0.40;78.70
53962;DHT22;39868;53.398;6.564;2022-12-13T04:30:50;-0.40;78.70
53962;DHT22;39868;53.398;6.564;2022-12-13T04:33:21;-0.40;78.70
53962;DHT22;39868;53.398;6.564;2022-12-13T04:35:49;-0.40;78.70
53962;DHT22;39868;53.398;6.564;2022-12-13T04:38:17;-0.40;78.80
53962;DHT22;39868;53.398;6.564;2022-12-13T04:40:45;-0.40;78.80
53962;DHT22;39868;53.398;6.564;2022-12-13T04:43:12;-0.40;78.80
53962;DHT22;39868;53.398;6.564;2022-12-13T04:45:40;-0.40;78.80
53962;DHT22;39868;53.398;6.564;2022-12-13T04:48:07;-0.30;78.90
53962;DHT22;39868;53.398;6.564;2022-12-13T04:50:35;-0.40;78.70
53962;DHT22;39868;53.398;6.564;2022-12-13T04:53:03;-0.40;78.70
53962;DHT22;39868;53.398;6.564;2022-12-13T04:55:30;-0.40;78.70
53962;DHT22;39868;53.398;6.564;2022-12-13T04:57:58;-0.40;78.70
53962;DHT22;39868;53.398;6.564;2022-12-13T05:00:25;-0.40;78.70
53962;DHT22;39868;53.398;6.564;2022-12-13T05:02:53;-0.40;78.60
53962;DHT22;39868;53.398;6.564;2022-12-13T05:05:21;-0.40;78.60
53962;DHT22;39868;53.398;6.564;2022-12-13T05:07:48;-0.40;78.70
53962;DHT22;39868;53.398;6.564;2022-12-13T05:10:16;-0.40;78.60
53962;DHT22;39868;53.398;6.564;2022-12-13T05:13:03;-0.50;78.60
53962;DHT22;39868;53.398;6.564;2022-12-13T05:15:32;-0.50;78.50
53962;DHT22;39868;53.398;6.564;2022-12-13T05:18:02;-0.50;78.60
53962;DHT22;39868;53.398;6.564;2022-12-13T05:20:38;-0.60;78.50
53962;DHT22;39868;53.398;6.564;2022-12-13T05:23:05;-0.60;78.50
53962;DHT22;39868;53.398;6.564;2022-12-13T05:25:33;-0.60;78.50
53962;DHT22;39868;53.398;6.564;2022-12-13T05:28:04;-0.60;78.60
53962;DHT22;39868;53.398;6.564;2022-12-13T05:30:53;-0.60;78.60
53962;DHT22;39868;53.398;6.564;2022-12-13T05:33:22;-0.60;78.60
53962;DHT22;39868;53.398;6.564;2022-12-13T05:35:50;-0.60;78.60
53962;DHT22;39868;53.398;6.564;2022-12-13T05:38:26;-0.60;78.80
53962;DHT22;39868;53.398;6.564;2022-12-13T05:40:53;-0.60;78.60
53962;DHT22;39868;53.398;6.564;2022-12-13T05:43:21;-0.60;78.70
53962;DHT22;39868;53.398;6.564;2022-12-13T05:46:10;-0.70;78.60
53962;DHT22;39868;53.398;6.564;2022-12-13T05:48:38;-0.70;79.10
53962;DHT22;39868;53.398;6.564;2022-12-13T05:51:06;-0.70;78.60
53962;DHT22;39868;53.398;6.564;2022-12-13T05:53:38;-0.70;78.60
53962;DHT22;39868;53.398;6.564;2022-12-13T05:56:07;-0.70;78.60
53962;DHT22;39868;53.398;6.564;2022-12-13T05:58:36;-0.70;78.70
53962;DHT22;39868;53.398;6.564;2022-12-13T06:01:10;-0.70;78.70
53962;DHT22;39868;53.398;6.564;2022-12-13T06:03:40;-0.70;78.70
53962;DHT22;39868;53.398;6.564;2022-12-13T06:06:09;-0.70;78.70
53962;DHT22;39868;53.398;6.564;2022-12-13T06:08:39;-0.70;78.70
53962;DHT22;39868;53.398;6.564;2022-12-13T06:11:07;-0.80;78.60
53962;DHT22;39868;53.398;6.564;2022-12-13T06:13:39;-0.80;78.60
53962;DHT22;39868;53.398;6.564;2022-12-13T06:16:10;-0.80;78.60
53962;DHT22;39868;53.398;6.564;2022-12-13T06:18:50;-0.80;78.60
53962;DHT22;39868;53.398;6.564;2022-12-13T06:21:27;-0.80;78.70
53962;DHT22;39868;53.398;6.564;2022-12-13T06:24:09;-0.80;78.70
53962;DHT22;39868;53.398;6.564;2022-12-13T06:26:37;-0.80;78.70
53962;DHT22;39868;53.398;6.564;2022-12-13T06:29:04;-0.80;78.70
53962;DHT22;39868;53.398;6.564;2022-12-13T06:31:32;-0.80;78.70
53962;DHT22;39868;53.398;6.564;2022-12-13T06:34:03;-0.80;78.80
53962;DHT22;39868;53.398;6.564;2022-12-13T06:36:41;-0.80;78.80
53962;DHT22;39868;53.398;6.564;2022-12-13T06:39:09;-0.80;78.80
53962;DHT22;39868;53.398;6.564;2022-12-13T06:41:36;-0.80;78.80
53962;DHT22;39868;53.398;6.564;2022-12-13T06:44:04;-0.80;78.80
53962;DHT22;39868;53.398;6.564;2022-12-13T06:46:32;-0.80;79.40
53962;DHT22;39868;53.398;6.564;2022-12-13T06:49:00;-0.80;78.80
53962;DHT22;39868;53.398;6.564;2022-12-13T06:51:27;-0.80;78.90
53962;DHT22;39868;53.398;6.564;2022-12-13T06:53:59;-0.80;78.80
53962;DHT22;39868;53.398;6.564;2022-12-13T06:56:29;-0.80;78.80
53962;DHT22;39868;53.398;6.564;2022-12-13T06:58:57;-0.70;79.00
53962;DHT22;39868;53.398;6.564;2022-12-13T07:01:28;-0.70;79.00
53962;DHT22;39868;53.398;6.564;2022-12-13T07:04:08;-0.70;79.00
53962;DHT22;39868;53.398;6.564;2022-12-13T07:06:56;-0.70;79.00
53962;DHT22;39868;53.398;6.564;2022-12-13T07:09:31;-0.70;79.00
53962;DHT22;39868;53.398;6.564;2022-12-13T07:11:59;-0.70;79.10
53962;DHT22;39868;53.398;6.564;2022-12-13T07:14:31;-0.70;79.10
53962;DHT22;39868;53.398;6.564;2022-12-13T07:17:07;-0.70;79.10
53962;DHT22;39868;53.398;6.564;2022-12-13T07:19:34;-0.70;79.10
53962;DHT22;39868;53.398;6.564;2022-12-13T07:22:03;-0.70;79.20
53962;DHT22;39868;53.398;6.564;2022-12-13T07:24:33;-0.70;79.10
53962;DHT22;39868;53.398;6.564;2022-12-13T07:27:02;-0.70;79.10
53962;DHT22;39868;53.398;6.564;2022-12-13T07:29:31;-0.60;79.20
53962;DHT22;39868;53.398;6.564;2022-12-13T07:31:58;-0.60;79.20
53962;DHT22;39868;53.398;6.564;2022-12-13T07:34:28;-0.60;79.20
53962;DHT22;39868;53.398;6.564;2022-12-13T07:36:56;-0.60;79.20
53962;DHT22;39868;53.398;6.564;2022-12-13T07:39:24;-0.60;79.20
53962;DHT22;39868;53.398;6.564;2022-12-13T07:41:54;-0.60;79.20
53962;DHT22;39868;53.398;6.564;2022-12-13T07:44:22;-0.60;79.20
53962;DHT22;39868;53.398;6.564;2022-12-13T07:46:50;-0.60;79.20
53962;DHT22;39868;53.398;6.564;2022-12-13T07:49:18;-0.60;79.20
53962;DHT22;39868;53.398;6.564;2022-12-13T07:51:46;-0.60;79.20
53962;DHT22;39868;53.398;6.564;2022-12-13T07:54:15;-0.60;79.20
53962;DHT22;39868;53.398;6.564;2022-12-13T07:56:42;-0.50;79.20
53962;DHT22;39868;53.398;6.564;2022-12-13T07:59:12;-0.60;79.10
53962;DHT22;39868;53.398;6.564;2022-12-13T08:01:39;-0.50;79.20
53962;DHT22;39868;53.398;6.564;2022-12-13T08:04:08;-0.50;79.20
53962;DHT22;39868;53.398;6.564;2022-12-13T08:06:37;-0.50;79.20
53962;DHT22;39868;53.398;6.564;2022-12-13T08:09:05;-0.50;79.20
53962;DHT22;39868;53.398;6.564;2022-12-13T08:11:33;-0.50;79.20
53962;DHT22;39868;53.398;6.564;2022-12-13T08:14:00;-0.50;79.10
53962;DHT22;39868;53.398;6.564;2022-12-13T08:16:28;-0.50;79.10
53962;DHT22;39868;53.398;6.564;2022-12-13T08:18:57;-0.50;79.00
53962;DHT22;39868;53.398;6.564;2022-12-13T08:21:34;-0.50;79.00
53962;DHT22;39868;53.398;6.564;2022-12-13T08:24:26;-0.40;79.10
53962;DHT22;39868;53.398;6.564;2022-12-13T08:26:56;-0.40;79.10
53962;DHT22;39868;53.398;6.564;2022-12-13T08:29:30;-0.40;79.10
53962;DHT22;39868;53.398;6.564;2022-12-13T08:32:07;-0.40;79.10
53962;DHT22;39868;53.398;6.564;2022-12-13T08:34:35;-0.40;79.10
53962;DHT22;39868;53.398;6.564;2022-12-13T08:37:03;-0.40;79.10
53962;DHT22;39868;53.398;6.564;2022-12-13T08:39:36;-0.40;79.10
53962;DHT22;39868;53.398;6.564;2022-12-13T08:42:11;-0.40;79.10
53962;DHT22;39868;53.398;6.564;2022-12-13T08:44:48;-0.30;79.10
53962;DHT22;39868;53.398;6.564;2022-12-13T08:47:19;-0.30;79.10
53962;DHT22;39868;53.398;6.564;2022-12-13T08:49:55;-0.30;79.10
53962;DHT22;39868;53.398;6.564;2022-12-13T08:52:33;-0.30;79.10
53962;DHT22;39868;53.398;6.564;2022-12-13T08:55:08;-0.20;79.20
53962;DHT22;39868;53.398;6.564;2022-12-13T08:57:37;-0.20;79.20
53962;DHT22;39868;53.398;6.564;2022-12-13T09:00:06;-0.10;79.20
53962;DHT22;39868;53.398;6.564;2022-12-13T09:02:34;-0.10;79.20
53962;DHT22;39868;53.398;6.564;2022-12-13T09:05:05;-0.10;79.20
53962;DHT22;39868;53.398;6.564;2022-12-13T09:07:34;0.00;79.30
53962;DHT22;39868;53.398;6.564;2022-12-13T09:10:06;0.00;79.30
53962;DHT22;39868;53.398;6.564;2022-12-13T09:12:54;0.00;79.20
53962;DHT22;39868;53.398;6.564;2022-12-13T09:15:29;0.00;79.20
53962;DHT22;39868;53.398;6.564;2022-12-13T09:18:01;0.10;79.20
53962;DHT22;39868;53.398;6.564;2022-12-13T09:20:32;0.10;79.20
53962;DHT22;39868;53.398;6.564;2022-12-13T09:23:08;0.10;79.10
53962;DHT22;39868;53.398;6.564;2022-12-13T09:25:57;0.10;79.10
53962;DHT22;39868;53.398;6.564;2022-12-13T09:28:34;0.10;79.00
53962;DHT22;39868;53.398;6.564;2022-12-13T09:33:35;0.20;79.00
53962;DHT22;39868;53.398;6.564;2022-12-13T09:36:10;0.20;79.00
53962;DHT22;39868;53.398;6.564;2022-12-13T09:38:38;0.20;79.00
53962;DHT22;39868;53.398;6.564;2022-12-13T09:43:58;0.30;79.10
53962;DHT22;39868;53.398;6.564;2022-12-13T09:46:37;0.30;79.10
53962;DHT22;39868;53.398;6.564;2022-12-13T09:51:53;0.40;79.20
53962;DHT22;39868;53.398;6.564;2022-12-13T09:54:38;0.50;79.30
53962;DHT22;39868;53.398;6.564;2022-12-13T09:57:18;0.50;79.30
53962;DHT22;39868;53.398;6.564;2022-12-13T10:00:10;0.60;79.30
53962;DHT22;39868;53.398;6.564;2022-12-13T10:02:51;0.70;79.40
53962;DHT22;39868;53.398;6.564;2022-12-13T10:05:33;0.70;79.40
53962;DHT22;39868;53.398;6.564;2022-12-13T10:08:36;0.80;79.40
53962;DHT22;39868;53.398;6.564;2022-12-13T10:11:10;0.90;79.50
53962;DHT22;39868;53.398;6.564;2022-12-13T10:19:22;1.10;79.60
53962;DHT22;39868;53.398;6.564;2022-12-13T10:21:56;1.20;79.60
53962;DHT22;39868;53.398;6.564;2022-12-13T10:24:29;1.30;79.70
53962;DHT22;39868;53.398;6.564;2022-12-13T10:27:12;1.30;79.60
53962;DHT22;39868;53.398;6.564;2022-12-13T10:30:01;1.40;79.60
53962;DHT22;39868;53.398;6.564;2022-12-13T10:32:30;1.40;79.60
53962;DHT22;39868;53.398;6.564;2022-12-13T10:35:39;1.50;79.60
53962;DHT22;39868;53.398;6.564;2022-12-13T10:40:37;1.60;79.60
53962;DHT22;39868;53.398;6.564;2022-12-13T10:43:21;1.70;79.60
53962;DHT22;39868;53.398;6.564;2022-12-13T10:48:49;1.80;79.60
53962;DHT22;39868;53.398;6.564;2022-12-13T10:51:19;1.90;79.60
53962;DHT22;39868;53.398;6.564;2022-12-13T10:53:56;2.00;79.60
53962;DHT22;39868;53.398;6.564;2022-12-13T10:56:37;2.10;79.60
53962;DHT22;39868;53.398;6.564;2022-12-13T11:01:43;2.20;79.60
53962;DHT22;39868;53.398;6.564;2022-12-13T11:04:34;2.30;79.60
53962;DHT22;39868;53.398;6.564;2022-12-13T11:07:22;2.40;79.60
53962;DHT22;39868;53.398;6.564;2022-12-13T11:09:50;2.40;79.60
53962;DHT22;39868;53.398;6.564;2022-12-13T11:12:21;2.50;79.60
53962;DHT22;39868;53.398;6.564;2022-12-13T11:14:58;2.60;79.60
53962;DHT22;39868;53.398;6.564;2022-12-13T11:17:28;2.60;79.50
53962;DHT22;39868;53.398;6.564;2022-12-13T11:20:14;2.70;79.50
53962;DHT22;39868;53.398;6.564;2022-12-13T11:22:44;2.80;79.50
53962;DHT22;39868;53.398;6.564;2022-12-13T11:25:24;2.80;79.40
53962;DHT22;39868;53.398;6.564;2022-12-13T11:33:50;3.00;79.30
53962;DHT22;39868;53.398;6.564;2022-12-13T11:36:28;3.10;79.30
53962;DHT22;39868;53.398;6.564;2022-12-13T11:39:25;3.20;79.20
53962;DHT22;39868;53.398;6.564;2022-12-13T11:47:20;3.40;79.20
53962;DHT22;39868;53.398;6.564;2022-12-13T11:49:51;3.50;79.20
53962;DHT22;39868;53.398;6.564;2022-12-13T11:52:34;3.60;79.20
53962;DHT22;39868;53.398;6.564;2022-12-13T11:58:22;3.80;79.00
53962;DHT22;39868;53.398;6.564;2022-12-13T12:01:16;3.90;78.90
53962;DHT22;39868;53.398;6.564;2022-12-13T12:07:10;4.10;78.60
53962;DHT22;39868;53.398;6.564;2022-12-13T12:10:09;4.20;78.60
53962;DHT22;39868;53.398;6.564;2022-12-13T12:12:44;4.20;78.40
53962;DHT22;39868;53.398;6.564;2022-12-13T12:15:16;4.30;78.40
53962;DHT22;39868;53.398;6.564;2022-12-13T12:17:54;4.40;78.30
53962;DHT22;39868;53.398;6.564;2022-12-13T12:20:43;4.40;78.60
53962;DHT22;39868;53.398;6.564;2022-12-13T12:26:01;4.50;77.70
53962;DHT22;39868;53.398;6.564;2022-12-13T12:29:09;4.50;77.70
53962;DHT22;39868;53.398;6.564;2022-12-13T12:43:10;4.60;77.20
53962;DHT22;39868;53.398;6.564;2022-12-13T12:51:50;4.70;77.00
53962;DHT22;39868;53.398;6.564;2022-12-13T12:58:03;4.70;76.80
53962;DHT22;39868;53.398;6.564;2022-12-13T13:03:22;4.70;76.70
53962;DHT22;39868;53.398;6.564;2022-12-13T13:06:39;4.70;76.70
53962;DHT22;39868;53.398;6.564;2022-12-13T13:09:00;4.80;76.50
53962;DHT22;39868;53.398;6.564;2022-12-13T13:11:34;4.80;76.40
53962;DHT22;39868;53.398;6.564;2022-12-13T13:16:49;4.80;76.30
53962;DHT22;39868;53.398;6.564;2022-12-13T13:21:56;4.80;75.90
53962;DHT22;39868;53.398;6.564;2022-12-13T13:24:30;4.80;75.70
53962;DHT22;39868;53.398;6.564;2022-12-13T13:29:39;4.80;75.80
53962;DHT22;39868;53.398;6.564;2022-12-13T13:34:46;4.80;76.10
53962;DHT22;39868;53.398;6.564;2022-12-13T13:43:12;4.80;75.80
53962;DHT22;39868;53.398;6.564;2022-12-13T13:46:18;4.80;75.80
53962;DHT22;39868;53.398;6.564;2022-12-13T13:49:00;4.80;76.00
53962;DHT22;39868;53.398;6.564;2022-12-13T14:09:51;4.80;75.80
53962;DHT22;39868;53.398;6.564;2022-12-13T14:29:43;4.80;75.70
53962;DHT22;39868;53.398;6.564;2022-12-13T14:32:21;4.80;75.50
53962;DHT22;39868;53.398;6.564;2022-12-13T14:34:58;4.80;75.50
53962;DHT22;39868;53.398;6.564;2022-12-13T14:37:56;4.80;75.40
53962;DHT22;39868;53.398;6.564;2022-12-13T14:40:31;4.80;75.30
53962;DHT22;39868;53.398;6.564;2022-12-13T14:43:00;4.80;75.20
53962;DHT22;39868;53.398;6.564;2022-12-13T14:45:35;4.70;75.10
53962;DHT22;39868;53.398;6.564;2022-12-13T14:48:09;4.60;74.80
53962;DHT22;39868;53.398;6.564;2022-12-13T14:50:41;4.60;74.80
53962;DHT22;39868;53.398;6.564;2022-12-13T14:53:38;4.50;74.70
53962;DHT22;39868;53.398;6.564;2022-12-13T14:56:11;4.30;74.60
53962;DHT22;39868;53.398;6.564;2022-12-13T14:58:59;4.30;74.60
53962;DHT22;39868;53.398;6.564;2022-12-13T15:06:58;4.00;74.70
53962;DHT22;39868;53.398;6.564;2022-12-13T15:09:28;3.90;74.70
53962;DHT22;39868;53.398;6.564;2022-12-13T15:11:57;3.80;74.80
53962;DHT22;39868;53.398;6.564;2022-12-13T15:14:56;3.70;74.70
53962;DHT22;39868;53.398;6.564;2022-12-13T15:17:34;3.60;74.80
53962;DHT22;39868;53.398;6.564;2022-12-13T15:20:27;3.50;74.90
53962;DHT22;39868;53.398;6.564;2022-12-13T15:23:16;3.40;74.90
53962;DHT22;39868;53.398;6.564;2022-12-13T15:26:10;3.40;75.00
53962;DHT22;39868;53.398;6.564;2022-12-13T15:28:41;3.30;75.00
53962;DHT22;39868;53.398;6.564;2022-12-13T15:31:10;3.20;75.10
53962;DHT22;39868;53.398;6.564;2022-12-13T15:33:39;3.20;75.10
53962;DHT22;39868;53.398;6.564;2022-12-13T15:36:27;3.10;75.10
53962;DHT22;39868;53.398;6.564;2022-12-13T15:41:39;3.00;75.20
53962;DHT22;39868;53.398;6.564;2022-12-13T15:44:26;2.90;75.20
53962;DHT22;39868;53.398;6.564;2022-12-13T15:47:14;2.80;75.20
53962;DHT22;39868;53.398;6.564;2022-12-13T15:49:59;2.80;75.20
53962;DHT22;39868;53.398;6.564;2022-12-13T15:52:35;2.70;75.20
53962;DHT22;39868;53.398;6.564;2022-12-13T15:57:35;2.60;75.30
53962;DHT22;39868;53.398;6.564;2022-12-13T16:00:20;2.50;75.30
53962;DHT22;39868;53.398;6.564;2022-12-13T16:03:04;2.50;75.30
53962;DHT22;39868;53.398;6.564;2022-12-13T16:05:39;2.40;75.30
53962;DHT22;39868;53.398;6.564;2022-12-13T16:08:30;2.40;75.50
53962;DHT22;39868;53.398;6.564;2022-12-13T16:10:58;2.30;75.40
53962;DHT22;39868;53.398;6.564;2022-12-13T16:13:29;2.30;75.50
53962;DHT22;39868;53.398;6.564;2022-12-13T16:16:19;2.30;75.50
53962;DHT22;39868;53.398;6.564;2022-12-13T16:18:56;2.20;75.50
53962;DHT22;39868;53.398;6.564;2022-12-13T16:21:25;2.20;75.50
53962;DHT22;39868;53.398;6.564;2022-12-13T16:23:53;2.20;75.60
53962;DHT22;39868;53.398;6.564;2022-12-13T16:26:23;2.10;75.60
53962;DHT22;39868;53.398;6.564;2022-12-13T16:28:55;2.10;75.60
53962;DHT22;39868;53.398;6.564;2022-12-13T16:31:27;2.00;75.60
53962;DHT22;39868;53.398;6.564;2022-12-13T16:33:57;2.00;75.70
53962;DHT22;39868;53.398;6.564;2022-12-13T16:36:25;2.00;75.70
53962;DHT22;39868;53.398;6.564;2022-12-13T16:38:52;1.90;75.70
53962;DHT22;39868;53.398;6.564;2022-12-13T16:41:20;1.90;75.70
53962;DHT22;39868;53.398;6.564;2022-12-13T16:43:52;1.90;75.70
53962;DHT22;39868;53.398;6.564;2022-12-13T16:46:20;1.90;75.80
53962;DHT22;39868;53.398;6.564;2022-12-13T16:49:26;1.80;75.80
53962;DHT22;39868;53.398;6.564;2022-12-13T16:51:55;1.80;75.80
53962;DHT22;39868;53.398;6.564;2022-12-13T16:54:24;1.80;75.90
53962;DHT22;39868;53.398;6.564;2022-12-13T16:56:52;1.70;75.80
53962;DHT22;39868;53.398;6.564;2022-12-13T16:59:22;1.70;75.80
53962;DHT22;39868;53.398;6.564;2022-12-13T17:01:51;1.70;75.90
53962;DHT22;39868;53.398;6.564;2022-12-13T17:04:22;1.60;75.80
53962;DHT22;39868;53.398;6.564;2022-12-13T17:06:50;1.60;75.90
53962;DHT22;39868;53.398;6.564;2022-12-13T17:09:22;1.60;75.90
53962;DHT22;39868;53.398;6.564;2022-12-13T17:11:50;1.60;76.00
53962;DHT22;39868;53.398;6.564;2022-12-13T17:14:17;1.60;76.00
53962;DHT22;39868;53.398;6.564;2022-12-13T17:16:45;1.60;76.00
53962;DHT22;39868;53.398;6.564;2022-12-13T17:19:13;1.50;76.00
53962;DHT22;39868;53.398;6.564;2022-12-13T17:21:41;1.50;76.00
53962;DHT22;39868;53.398;6.564;2022-12-13T17:24:09;1.50;76.10
53962;DHT22;39868;53.398;6.564;2022-12-13T17:26:36;1.50;76.10
53962;DHT22;39868;53.398;6.564;2022-12-13T17:29:04;1.40;76.00
53962;DHT22;39868;53.398;6.564;2022-12-13T17:31:32;1.40;76.00
53962;DHT22;39868;53.398;6.564;2022-12-13T17:34:03;1.40;76.10
53962;DHT22;39868;53.398;6.564;2022-12-13T17:36:31;1.40;76.10
53962;DHT22;39868;53.398;6.564;2022-12-13T17:38:58;1.30;76.00
53962;DHT22;39868;53.398;6.564;2022-12-13T17:41:26;1.30;76.00
53962;DHT22;39868;53.398;6.564;2022-12-13T17:43:57;1.30;76.00
53962;DHT22;39868;53.398;6.564;2022-12-13T17:46:26;1.30;76.00
53962;DHT22;39868;53.398;6.564;2022-12-13T17:48:54;1.30;76.00
53962;DHT22;39868;53.398;6.564;2022-12-13T17:51:22;1.20;75.90
53962;DHT22;39868;53.398;6.564;2022-12-13T17:53:49;1.20;76.00
53962;DHT22;39868;53.398;6.564;2022-12-13T17:56:17;1.20;76.00
53962;DHT22;39868;53.398;6.564;2022-12-13T17:58:46;1.20;76.00
53962;DHT22;39868;53.398;6.564;2022-12-13T18:01:18;1.10;76.00
53962;DHT22;39868;53.398;6.564;2022-12-13T18:03:47;1.10;76.00
53962;DHT22;39868;53.398;6.564;2022-12-13T18:06:17;1.10;76.10
53962;DHT22;39868;53.398;6.564;2022-12-13T18:08:46;1.00;76.00
53962;DHT22;39868;53.398;6.564;2022-12-13T18:11:15;1.00;76.00
53962;DHT22;39868;53.398;6.564;2022-12-13T18:14:05;1.00;76.10
53962;DHT22;39868;53.398;6.564;2022-12-13T18:16:33;1.00;76.10
53962;DHT22;39868;53.398;6.564;2022-12-13T18:19:07;0.90;76.10
53962;DHT22;39868;53.398;6.564;2022-12-13T18:21:36;0.90;76.10
53962;DHT22;39868;53.398;6.564;2022-12-13T18:24:05;0.90;76.20
53962;DHT22;39868;53.398;6.564;2022-12-13T18:26:33;0.90;76.20
53962;DHT22;39868;53.398;6.564;2022-12-13T18:29:02;0.80;76.20
53962;DHT22;39868;53.398;6.564;2022-12-13T18:31:30;0.80;76.20
53962;DHT22;39868;53.398;6.564;2022-12-13T18:33:58;0.80;76.20
53962;DHT22;39868;53.398;6.564;2022-12-13T18:36:25;0.80;76.30
53962;DHT22;39868;53.398;6.564;2022-12-13T18:38:53;0.80;76.30
53962;DHT22;39868;53.398;6.564;2022-12-13T18:41:23;0.70;76.30
53962;DHT22;39868;53.398;6.564;2022-12-13T18:44:03;0.70;76.40
53962;DHT22;39868;53.398;6.564;2022-12-13T18:46:33;0.70;76.40
53962;DHT22;39868;53.398;6.564;2022-12-13T18:49:02;0.70;76.40
53962;DHT22;39868;53.398;6.564;2022-12-13T18:51:30;0.70;76.40
53962;DHT22;39868;53.398;6.564;2022-12-13T18:53:58;0.70;76.40